Rawalakot Weather



Rawalakot's Current Weather

Temprature 29.07o few clouds

few clouds

Rain: 0 %

Min Temprature29.07o
Max Temprature29.07o
Humidity45
Wind Speed2.32 m/h
Sun Rise05:10:47
Sun Set19:11:49
Current Time: 24-Jul-2021 17:05:51
Lat/Lon: 33.858, 73.7604




Rawalakot's Geo Location



Rawalakot's Weather Forecast

Time Overall Temp Min Temp Max Temp Humidity Wind Speed Rain
24-Jul-2021 (Sat)
20:00:00 few clouds 27.270 23.670 27.270 51 0.8 m/h 0 %
23:00:00 few clouds 24.620 22.390 24.620 59 2.25 m/h 0 %
25-Jul-2021 (Sun)
02:00:00 clear sky 21.700 21.700 21.700 66 2.2 m/h 0 %
05:00:00 scattered clouds 21.440 21.440 21.440 65 2.21 m/h 0 %
08:00:00 broken clouds 26.080 26.080 26.080 53 0.77 m/h 0 %
11:00:00 scattered clouds 29.140 29.140 29.140 43 2.47 m/h 0 %
14:00:00 overcast clouds 29.400 29.400 29.400 45 2.41 m/h 0 %
17:00:00 overcast clouds 28.740 28.740 28.740 49 1.27 m/h 0 %
20:00:00 overcast clouds 24.880 24.880 24.880 59 1.48 m/h 0 %
23:00:00 broken clouds 23.490 23.490 23.490 63 1.72 m/h 0 %
26-Jul-2021 (Mon)
02:00:00 broken clouds 22.270 22.270 22.270 67 0.79 m/h 0 %
05:00:00 broken clouds 21.670 21.670 21.670 70 1.77 m/h 0 %
08:00:00 broken clouds 25.980 25.980 25.980 61 1.57 m/h 0 %
11:00:00 light rain 27.640 27.640 27.640 59 2.5 m/h 68 %
14:00:00 light rain 28.220 28.220 28.220 59 2.5 m/h 72 %
17:00:00 light rain 25.420 25.420 25.420 74 0.92 m/h 77 %
20:00:00 light rain 24.240 24.240 24.240 76 1.69 m/h 35 %
23:00:00 light rain 23.520 23.520 23.520 78 1.17 m/h 27 %
27-Jul-2021 (Tue)
02:00:00 moderate rain 22.910 22.910 22.910 83 0.19 m/h 356 %
05:00:00 light rain 22.190 22.190 22.190 85 0.75 m/h 267 %
08:00:00 light rain 23.530 23.530 23.530 81 1.49 m/h 83 %
11:00:00 light rain 25.450 25.450 25.450 76 2.83 m/h 174 %
14:00:00 moderate rain 24.720 24.720 24.720 80 2.87 m/h 664 %
17:00:00 moderate rain 23.970 23.970 23.970 82 1.94 m/h 845 %
20:00:00 moderate rain 21.480 21.480 21.480 91 1.69 m/h 625 %
23:00:00 moderate rain 20.660 20.660 20.660 94 2.18 m/h 513 %
28-Jul-2021 (Wed)
02:00:00 heavy intensity rain 19.830 19.830 19.830 99 1.82 m/h 2,387 %
05:00:00 heavy intensity rain 18.740 18.740 18.740 96 1.97 m/h 2,125 %
08:00:00 light rain 19.800 19.800 19.800 91 0.58 m/h 119 %
11:00:00 moderate rain 20.080 20.080 20.080 93 1.38 m/h 398 %
14:00:00 moderate rain 19.720 19.720 19.720 97 1.9 m/h 930 %
17:00:00 moderate rain 18.980 18.980 18.980 98 1.1 m/h 780 %
20:00:00 light rain 18.990 18.990 18.990 92 1.15 m/h 165 %
23:00:00 overcast clouds 19.440 19.440 19.440 86 0.7 m/h 0 %
29-Jul-2021 (Thu)
02:00:00 broken clouds 18.970 18.970 18.970 86 1.1 m/h 0 %
05:00:00 broken clouds 17.920 17.920 17.920 91 0.64 m/h 0 %
08:00:00 broken clouds 20.110 20.110 20.110 85 0.31 m/h 0 %
11:00:00 light rain 23.690 23.690 23.690 73 2.44 m/h 20 %
14:00:00 light rain 24.050 24.050 24.050 74 2.4 m/h 177 %
17:00:00 moderate rain 23.480 23.480 23.480 78 2.06 m/h 359 %

Famous Cities (60)